Cape Express — HO5337 — position and weather

sailwx.info

Track history (hours):
 
Tides and Currents Weather Stations Pressure Air Temp Water Temp Dewpoint Dewpoint Depression Visibility Wind Speed Wind Dir Waves Ship Positions

Cape Express

Last reported at 2014-Jul-30 20:33 UTC. Time now 2014-Jul-30 21:26 UTC.
Position N 26°04' W 080°08'.

Length 29 m; draft 2.2 m.

Type: Cargo ship. MMSI: 370269000.

Date/timePositionNaut miles runAvg speedWind from/ knotsBaromVisibWave heightAir tempDewpointWater temp
2014-Jul-30 20:33N 26°04' W 080°08'0 0.0
2014-Jul-30 19:34N 26°04' W 080°08'0 0.0
2014-Jul-30 18:34N 26°04' W 080°08'0 0.0
2014-Jul-30 17:34N 26°04' W 080°08'0 0.0
2014-Jul-30 16:33N 26°04' W 080°08'0 0.0
2014-Jul-30 15:33N 26°04' W 080°08'0 0.0
2014-Jul-30 14:33N 26°04' W 080°08'0 0.0
2014-Jul-30 13:33N 26°04' W 080°08'0 0.0
2014-Jul-30 12:33N 26°04' W 080°08'0 0.0
2014-Jul-30 11:33N 26°04' W 080°08'2 1.9
2014-Jul-30 10:33N 26°05' W 080°07'7 7.3
2014-Jul-30 09:34N 26°04' W 079°59'8 7.7
2014-Jul-30 08:33N 26°02' W 079°51'8 7.8
2014-Jul-30 07:34N 25°60' W 079°42'8 7.9
2014-Jul-30 06:32N 25°58' W 079°34'  
2014-Jul-26 07:17N 25°56' W 079°28'7 9.1
2014-Jul-26 06:34N 25°58' W 079°35'9 8.9
2014-Jul-26 05:34N 26°00' W 079°45'9 8.6
2014-Jul-26 04:34N 26°03' W 079°54'9 9.4
2014-Jul-26 03:34N 26°05' W 080°04'4 3.8
2014-Jul-26 02:34N 26°04' W 080°08'0 0.1
2014-Jul-26 01:33N 26°04' W 080°08'0 0.0
2014-Jul-26 00:33N 26°04' W 080°08'0 0.0
2014-Jul-25 23:33N 26°04' W 080°08'0 0.0
2014-Jul-25 22:33N 26°04' W 080°08'0 0.0
2014-Jul-25 21:33N 26°04' W 080°08'0 0.0
2014-Jul-25 20:33N 26°04' W 080°08'0 0.0
2014-Jul-25 19:33N 26°04' W 080°08'0 0.0
2014-Jul-25 18:34N 26°04' W 080°08'0 0.0
2014-Jul-25 17:34N 26°04' W 080°08'0 0.0
2014-Jul-25 16:34N 26°04' W 080°08'0 0.0
2014-Jul-25 15:34N 26°04' W 080°08'0 0.0
2014-Jul-25 14:33N 26°04' W 080°08'0 0.0
2014-Jul-25 13:34N 26°04' W 080°08'0 0.0
2014-Jul-25 12:33N 26°04' W 080°08'4 3.8
2014-Jul-25 11:33N 26°05' W 080°04'1010.3
2014-Jul-25 10:33N 26°02' W 079°53'1110.7
2014-Jul-25 09:33N 25°59' W 079°41'1110.6
2014-Jul-25 08:33N 25°57' W 079°30'  
2014-Jul-22 22:30N 26°06' W 079°23'9 9.8
2014-Jul-22 21:33N 26°06' W 079°34'10 9.8
2014-Jul-22 20:33N 26°06' W 079°44'1010.2
2014-Jul-22 19:33N 26°05' W 079°56'10 9.9
2014-Jul-22 18:33N 26°06' W 080°07'2 2.0
2014-Jul-22 17:33N 26°04' W 080°08'0 0.0
2014-Jul-22 16:33N 26°04' W 080°08'0 0.0
2014-Jul-22 15:33N 26°04' W 080°08'0 0.0
2014-Jul-22 14:33N 26°04' W 080°08'0 0.0
2014-Jul-22 13:33N 26°04' W 080°08'2 1.5
2014-Jul-22 12:33N 26°05' W 080°07'9 9.0
2014-Jul-22 11:33N 26°03' W 079°57'1010.5
2014-Jul-22 10:33N 26°00' W 079°46'1110.8
2014-Jul-22 09:33N 25°57' W 079°34'  
Track history (hours):
 
Tides and Currents Weather Stations Pressure Air Temp Water Temp Dewpoint Dewpoint Depression Visibility Wind Speed Wind Dir Waves Ship Positions

Cape Express

Last reported at 2014-Jul-30 20:33 UTC. Time now 2014-Jul-30 21:26 UTC.
Position N 26°04' W 080°08'.

Length 29 m; draft 2.2 m.

Type: Cargo ship. MMSI: 370269000.

Date/timePositionNaut miles runAvg speedWind from/ knotsBaromVisibWave heightAir tempDewpointWater temp
2014-Jul-30 20:33N 26°04' W 080°08'0 0.0
2014-Jul-30 19:34N 26°04' W 080°08'0 0.0
2014-Jul-30 18:34N 26°04' W 080°08'0 0.0
2014-Jul-30 17:34N 26°04' W 080°08'0 0.0
2014-Jul-30 16:33N 26°04' W 080°08'0 0.0
2014-Jul-30 15:33N 26°04' W 080°08'0 0.0
2014-Jul-30 14:33N 26°04' W 080°08'0 0.0
2014-Jul-30 13:33N 26°04' W 080°08'0 0.0
2014-Jul-30 12:33N 26°04' W 080°08'0 0.0
2014-Jul-30 11:33N 26°04' W 080°08'2 1.9
2014-Jul-30 10:33N 26°05' W 080°07'7 7.3
2014-Jul-30 09:34N 26°04' W 079°59'8 7.7
2014-Jul-30 08:33N 26°02' W 079°51'8 7.8
2014-Jul-30 07:34N 25°60' W 079°42'8 7.9
2014-Jul-30 06:32N 25°58' W 079°34'  
2014-Jul-26 07:17N 25°56' W 079°28'7 9.1
2014-Jul-26 06:34N 25°58' W 079°35'9 8.9
2014-Jul-26 05:34N 26°00' W 079°45'9 8.6
2014-Jul-26 04:34N 26°03' W 079°54'9 9.4
2014-Jul-26 03:34N 26°05' W 080°04'4 3.8
2014-Jul-26 02:34N 26°04' W 080°08'0 0.1
2014-Jul-26 01:33N 26°04' W 080°08'0 0.0
2014-Jul-26 00:33N 26°04' W 080°08'0 0.0
2014-Jul-25 23:33N 26°04' W 080°08'0 0.0
2014-Jul-25 22:33N 26°04' W 080°08'0 0.0
2014-Jul-25 21:33N 26°04' W 080°08'0 0.0
2014-Jul-25 20:33N 26°04' W 080°08'0 0.0
2014-Jul-25 19:33N 26°04' W 080°08'0 0.0
2014-Jul-25 18:34N 26°04' W 080°08'0 0.0
2014-Jul-25 17:34N 26°04' W 080°08'0 0.0
2014-Jul-25 16:34N 26°04' W 080°08'0 0.0
2014-Jul-25 15:34N 26°04' W 080°08'0 0.0
2014-Jul-25 14:33N 26°04' W 080°08'0 0.0
2014-Jul-25 13:34N 26°04' W 080°08'0 0.0
2014-Jul-25 12:33N 26°04' W 080°08'4 3.8
2014-Jul-25 11:33N 26°05' W 080°04'1010.3
2014-Jul-25 10:33N 26°02' W 079°53'1110.7
2014-Jul-25 09:33N 25°59' W 079°41'1110.6
2014-Jul-25 08:33N 25°57' W 079°30'  
2014-Jul-22 22:30N 26°06' W 079°23'9 9.8
2014-Jul-22 21:33N 26°06' W 079°34'10 9.8
2014-Jul-22 20:33N 26°06' W 079°44'1010.2
2014-Jul-22 19:33N 26°05' W 079°56'10 9.9
2014-Jul-22 18:33N 26°06' W 080°07'2 2.0
2014-Jul-22 17:33N 26°04' W 080°08'0 0.0
2014-Jul-22 16:33N 26°04' W 080°08'0 0.0
2014-Jul-22 15:33N 26°04' W 080°08'0 0.0
2014-Jul-22 14:33N 26°04' W 080°08'0 0.0
2014-Jul-22 13:33N 26°04' W 080°08'2 1.5
2014-Jul-22 12:33N 26°05' W 080°07'9 9.0
2014-Jul-22 11:33N 26°03' W 079°57'1010.5
2014-Jul-22 10:33N 26°00' W 079°46'1110.8
2014-Jul-22 09:33N 25°57' W 079°34'  

Dump ship's entire track history